sensor_id;sensor_type;location;lat;lon;timestamp;P1;durP1;ratioP1;P2;durP2;ratioP2
42196;SDS011;27866;48.146;17.098;2022-10-16T00:02:32;63.53;;;35.10;;
42196;SDS011;27866;48.146;17.098;2022-10-16T00:06:43;54.83;;;30.23;;
42196;SDS011;27866;48.146;17.098;2022-10-16T00:10:58;59.33;;;31.98;;
42196;SDS011;27866;48.146;17.098;2022-10-16T00:15:15;56.50;;;31.45;;
42196;SDS011;27866;48.146;17.098;2022-10-16T00:19:26;61.97;;;32.63;;
42196;SDS011;27866;48.146;17.098;2022-10-16T00:23:37;56.50;;;32.35;;
42196;SDS011;27866;48.146;17.098;2022-10-16T00:27:49;58.38;;;32.72;;
42196;SDS011;27866;48.146;17.098;2022-10-16T00:32:00;62.03;;;33.83;;
42196;SDS011;27866;48.146;17.098;2022-10-16T00:36:12;64.93;;;34.13;;
42196;SDS011;27866;48.146;17.098;2022-10-16T00:49:14;62.97;;;34.40;;
42196;SDS011;27866;48.146;17.098;2022-10-16T00:53:27;68.30;;;33.05;;
42196;SDS011;27866;48.146;17.098;2022-10-16T00:57:39;61.40;;;33.38;;
42196;SDS011;27866;48.146;17.098;2022-10-16T01:01:50;64.80;;;32.95;;
42196;SDS011;27866;48.146;17.098;2022-10-16T01:10:40;63.55;;;31.92;;
42196;SDS011;27866;48.146;17.098;2022-10-16T01:15:19;58.67;;;31.70;;
42196;SDS011;27866;48.146;17.098;2022-10-16T01:19:54;64.13;;;31.25;;
42196;SDS011;27866;48.146;17.098;2022-10-16T01:24:43;68.55;;;31.58;;
42196;SDS011;27866;48.146;17.098;2022-10-16T01:33:30;66.40;;;30.73;;
42196;SDS011;27866;48.146;17.098;2022-10-16T01:42:18;63.72;;;31.73;;
42196;SDS011;27866;48.146;17.098;2022-10-16T01:46:36;58.03;;;30.83;;
42196;SDS011;27866;48.146;17.098;2022-10-16T01:51:01;64.32;;;30.40;;
42196;SDS011;27866;48.146;17.098;2022-10-16T01:55:24;52.75;;;28.00;;
42196;SDS011;27866;48.146;17.098;2022-10-16T01:59:45;52.28;;;28.08;;
42196;SDS011;27866;48.146;17.098;2022-10-16T02:04:11;51.28;;;27.70;;
42196;SDS011;27866;48.146;17.098;2022-10-16T02:08:49;47.50;;;25.55;;
42196;SDS011;27866;48.146;17.098;2022-10-16T02:13:03;39.15;;;22.75;;
42196;SDS011;27866;48.146;17.098;2022-10-16T02:17:38;43.97;;;22.42;;
42196;SDS011;27866;48.146;17.098;2022-10-16T02:21:56;32.28;;;21.65;;
42196;SDS011;27866;48.146;17.098;2022-10-16T02:26:17;35.35;;;21.40;;
42196;SDS011;27866;48.146;17.098;2022-10-16T02:30:58;34.28;;;22.40;;
42196;SDS011;27866;48.146;17.098;2022-10-16T02:35:15;37.20;;;21.77;;
42196;SDS011;27866;48.146;17.098;2022-10-16T02:43:40;34.10;;;21.55;;
42196;SDS011;27866;48.146;17.098;2022-10-16T02:47:52;34.20;;;21.55;;
42196;SDS011;27866;48.146;17.098;2022-10-16T02:52:03;38.25;;;24.58;;
42196;SDS011;27866;48.146;17.098;2022-10-16T02:56:14;38.63;;;23.20;;
42196;SDS011;27866;48.146;17.098;2022-10-16T03:00:25;37.95;;;22.48;;
42196;SDS011;27866;48.146;17.098;2022-10-16T03:04:36;36.60;;;22.58;;
42196;SDS011;27866;48.146;17.098;2022-10-16T03:08:48;40.63;;;22.95;;
42196;SDS011;27866;48.146;17.098;2022-10-16T03:12:59;40.10;;;24.08;;
42196;SDS011;27866;48.146;17.098;2022-10-16T03:17:10;34.35;;;23.50;;
42196;SDS011;27866;48.146;17.098;2022-10-16T03:21:21;40.25;;;25.20;;
42196;SDS011;27866;48.146;17.098;2022-10-16T03:25:32;39.38;;;25.23;;
42196;SDS011;27866;48.146;17.098;2022-10-16T03:29:43;41.65;;;25.30;;
42196;SDS011;27866;48.146;17.098;2022-10-16T03:33:54;43.30;;;26.33;;
42196;SDS011;27866;48.146;17.098;2022-10-16T03:38:05;45.72;;;27.10;;
42196;SDS011;27866;48.146;17.098;2022-10-16T03:42:16;37.90;;;23.35;;
42196;SDS011;27866;48.146;17.098;2022-10-16T03:46:28;38.75;;;23.70;;
42196;SDS011;27866;48.146;17.098;2022-10-16T03:50:39;38.83;;;24.65;;
42196;SDS011;27866;48.146;17.098;2022-10-16T03:54:51;42.03;;;24.38;;
42196;SDS011;27866;48.146;17.098;2022-10-16T03:59:02;43.97;;;24.30;;
42196;SDS011;27866;48.146;17.098;2022-10-16T04:03:13;34.15;;;22.58;;
42196;SDS011;27866;48.146;17.098;2022-10-16T04:07:24;32.88;;;21.30;;
42196;SDS011;27866;48.146;17.098;2022-10-16T04:11:35;32.42;;;20.48;;
42196;SDS011;27866;48.146;17.098;2022-10-16T04:15:46;34.70;;;21.88;;
42196;SDS011;27866;48.146;17.098;2022-10-16T04:19:57;29.17;;;20.27;;
42196;SDS011;27866;48.146;17.098;2022-10-16T04:24:09;32.45;;;20.75;;
42196;SDS011;27866;48.146;17.098;2022-10-16T04:28:21;30.70;;;19.60;;
42196;SDS011;27866;48.146;17.098;2022-10-16T04:32:32;33.38;;;20.30;;
42196;SDS011;27866;48.146;17.098;2022-10-16T04:36:44;28.27;;;18.73;;
42196;SDS011;27866;48.146;17.098;2022-10-16T04:40:59;34.15;;;19.52;;
42196;SDS011;27866;48.146;17.098;2022-10-16T04:45:11;29.77;;;19.35;;
42196;SDS011;27866;48.146;17.098;2022-10-16T04:49:22;35.47;;;21.73;;
42196;SDS011;27866;48.146;17.098;2022-10-16T04:53:33;39.28;;;21.75;;
42196;SDS011;27866;48.146;17.098;2022-10-16T04:57:44;34.58;;;22.08;;
42196;SDS011;27866;48.146;17.098;2022-10-16T05:01:55;36.17;;;22.52;;
42196;SDS011;27866;48.146;17.098;2022-10-16T05:06:06;34.20;;;21.38;;
42196;SDS011;27866;48.146;17.098;2022-10-16T05:10:18;34.42;;;21.23;;
42196;SDS011;27866;48.146;17.098;2022-10-16T05:14:29;37.85;;;21.88;;
42196;SDS011;27866;48.146;17.098;2022-10-16T05:18:41;37.25;;;19.60;;
42196;SDS011;27866;48.146;17.098;2022-10-16T05:22:52;34.63;;;20.85;;
42196;SDS011;27866;48.146;17.098;2022-10-16T05:27:03;33.65;;;21.52;;
42196;SDS011;27866;48.146;17.098;2022-10-16T05:31:14;35.80;;;21.45;;
42196;SDS011;27866;48.146;17.098;2022-10-16T05:35:25;35.28;;;21.58;;
42196;SDS011;27866;48.146;17.098;2022-10-16T05:39:37;33.83;;;21.98;;
42196;SDS011;27866;48.146;17.098;2022-10-16T05:43:51;31.35;;;19.67;;
42196;SDS011;27866;48.146;17.098;2022-10-16T05:48:03;32.25;;;20.13;;
42196;SDS011;27866;48.146;17.098;2022-10-16T05:52:14;33.30;;;20.13;;
42196;SDS011;27866;48.146;17.098;2022-10-16T05:56:25;35.70;;;18.75;;
42196;SDS011;27866;48.146;17.098;2022-10-16T06:00:37;35.33;;;20.50;;
42196;SDS011;27866;48.146;17.098;2022-10-16T06:04:48;36.92;;;18.55;;
42196;SDS011;27866;48.146;17.098;2022-10-16T06:08:59;30.00;;;18.15;;
42196;SDS011;27866;48.146;17.098;2022-10-16T06:13:10;26.60;;;18.33;;
42196;SDS011;27866;48.146;17.098;2022-10-16T06:17:22;29.10;;;16.67;;
42196;SDS011;27866;48.146;17.098;2022-10-16T06:21:33;26.38;;;14.57;;
42196;SDS011;27866;48.146;17.098;2022-10-16T06:25:45;20.05;;;14.65;;
42196;SDS011;27866;48.146;17.098;2022-10-16T06:29:56;23.98;;;14.68;;
42196;SDS011;27866;48.146;17.098;2022-10-16T06:34:08;25.80;;;15.35;;
42196;SDS011;27866;48.146;17.098;2022-10-16T06:38:21;30.83;;;14.57;;
42196;SDS011;27866;48.146;17.098;2022-10-16T06:42:32;23.63;;;15.95;;
42196;SDS011;27866;48.146;17.098;2022-10-16T06:46:43;26.63;;;14.80;;
42196;SDS011;27866;48.146;17.098;2022-10-16T06:51:01;24.15;;;15.63;;
42196;SDS011;27866;48.146;17.098;2022-10-16T06:55:16;24.25;;;15.80;;
42196;SDS011;27866;48.146;17.098;2022-10-16T06:59:27;23.67;;;14.90;;
42196;SDS011;27866;48.146;17.098;2022-10-16T07:03:39;25.38;;;14.55;;
42196;SDS011;27866;48.146;17.098;2022-10-16T07:07:52;28.77;;;15.35;;
42196;SDS011;27866;48.146;17.098;2022-10-16T07:12:03;21.88;;;14.48;;
42196;SDS011;27866;48.146;17.098;2022-10-16T07:16:18;32.45;;;14.23;;
42196;SDS011;27866;48.146;17.098;2022-10-16T07:20:31;21.23;;;13.43;;
42196;SDS011;27866;48.146;17.098;2022-10-16T07:24:43;22.23;;;14.38;;
42196;SDS011;27866;48.146;17.098;2022-10-16T07:28:54;22.73;;;13.25;;
42196;SDS011;27866;48.146;17.098;2022-10-16T07:33:06;18.63;;;13.20;;
42196;SDS011;27866;48.146;17.098;2022-10-16T07:37:18;22.08;;;12.90;;
42196;SDS011;27866;48.146;17.098;2022-10-16T07:41:29;19.02;;;13.40;;
42196;SDS011;27866;48.146;17.098;2022-10-16T07:45:46;20.33;;;13.23;;
42196;SDS011;27866;48.146;17.098;2022-10-16T07:49:59;19.02;;;12.50;;
42196;SDS011;27866;48.146;17.098;2022-10-16T07:54:10;24.33;;;14.63;;
42196;SDS011;27866;48.146;17.098;2022-10-16T07:58:21;25.10;;;14.45;;
42196;SDS011;27866;48.146;17.098;2022-10-16T08:02:32;23.85;;;14.20;;
42196;SDS011;27866;48.146;17.098;2022-10-16T08:06:43;20.65;;;14.48;;
42196;SDS011;27866;48.146;17.098;2022-10-16T08:10:54;26.80;;;15.10;;
42196;SDS011;27866;48.146;17.098;2022-10-16T08:15:06;24.08;;;15.38;;
42196;SDS011;27866;48.146;17.098;2022-10-16T08:19:17;20.48;;;13.90;;
42196;SDS011;27866;48.146;17.098;2022-10-16T08:23:28;23.85;;;14.23;;
42196;SDS011;27866;48.146;17.098;2022-10-16T08:27:40;18.00;;;12.93;;
42196;SDS011;27866;48.146;17.098;2022-10-16T08:31:51;23.27;;;14.75;;
42196;SDS011;27866;48.146;17.098;2022-10-16T08:36:03;17.67;;;13.23;;
42196;SDS011;27866;48.146;17.098;2022-10-16T08:40:19;18.83;;;12.68;;
42196;SDS011;27866;48.146;17.098;2022-10-16T08:49:12;22.40;;;16.13;;
42196;SDS011;27866;48.146;17.098;2022-10-16T08:53:26;21.35;;;16.27;;
42196;SDS011;27866;48.146;17.098;2022-10-16T09:01:59;25.63;;;15.00;;
42196;SDS011;27866;48.146;17.098;2022-10-16T09:10:51;21.02;;;14.80;;
42196;SDS011;27866;48.146;17.098;2022-10-16T09:15:40;17.77;;;14.52;;
42196;SDS011;27866;48.146;17.098;2022-10-16T09:20:20;23.63;;;15.65;;
42196;SDS011;27866;48.146;17.098;2022-10-16T09:24:37;22.13;;;16.92;;
42196;SDS011;27866;48.146;17.098;2022-10-16T09:28:48;21.60;;;16.30;;
42196;SDS011;27866;48.146;17.098;2022-10-16T09:33:01;25.75;;;18.67;;
42196;SDS011;27866;48.146;17.098;2022-10-16T09:37:14;28.42;;;18.55;;
42196;SDS011;27866;48.146;17.098;2022-10-16T09:41:30;24.95;;;17.33;;
42196;SDS011;27866;48.146;17.098;2022-10-16T09:46:04;27.30;;;18.70;;
42196;SDS011;27866;48.146;17.098;2022-10-16T09:50:22;34.55;;;22.02;;
42196;SDS011;27866;48.146;17.098;2022-10-16T09:54:36;34.28;;;21.63;;
42196;SDS011;27866;48.146;17.098;2022-10-16T09:58:55;31.25;;;22.48;;
42196;SDS011;27866;48.146;17.098;2022-10-16T10:03:11;37.03;;;23.50;;
42196;SDS011;27866;48.146;17.098;2022-10-16T10:07:33;33.83;;;21.77;;
42196;SDS011;27866;48.146;17.098;2022-10-16T10:11:55;32.35;;;21.85;;
42196;SDS011;27866;48.146;17.098;2022-10-16T10:16:08;32.42;;;21.13;;
42196;SDS011;27866;48.146;17.098;2022-10-16T10:33:59;36.58;;;22.77;;
42196;SDS011;27866;48.146;17.098;2022-10-16T10:43:10;35.85;;;22.45;;
42196;SDS011;27866;48.146;17.098;2022-10-16T10:56:50;31.83;;;23.33;;
42196;SDS011;27866;48.146;17.098;2022-10-16T11:11:05;34.03;;;23.10;;
42196;SDS011;27866;48.146;17.098;2022-10-16T11:20:29;31.40;;;22.27;;
42196;SDS011;27866;48.146;17.098;2022-10-16T11:29:17;22.92;;;19.05;;
42196;SDS011;27866;48.146;17.098;2022-10-16T11:33:39;23.25;;;18.88;;
42196;SDS011;27866;48.146;17.098;2022-10-16T11:43:16;21.33;;;19.00;;
42196;SDS011;27866;48.146;17.098;2022-10-16T11:47:54;22.38;;;18.55;;
42196;SDS011;27866;48.146;17.098;2022-10-16T11:56:45;21.60;;;18.17;;
42196;SDS011;27866;48.146;17.098;2022-10-16T12:01:01;20.10;;;18.00;;
42196;SDS011;27866;48.146;17.098;2022-10-16T12:05:19;21.27;;;16.75;;
42196;SDS011;27866;48.146;17.098;2022-10-16T12:09:41;20.13;;;17.38;;
42196;SDS011;27866;48.146;17.098;2022-10-16T12:18:50;18.73;;;16.42;;
42196;SDS011;27866;48.146;17.098;2022-10-16T12:23:21;18.85;;;16.77;;
42196;SDS011;27866;48.146;17.098;2022-10-16T12:27:33;21.85;;;17.00;;
42196;SDS011;27866;48.146;17.098;2022-10-16T12:31:46;18.30;;;16.05;;
42196;SDS011;27866;48.146;17.098;2022-10-16T12:40:44;19.50;;;15.93;;
42196;SDS011;27866;48.146;17.098;2022-10-16T12:49:49;22.83;;;16.03;;
42196;SDS011;27866;48.146;17.098;2022-10-16T13:08:25;22.42;;;16.70;;
42196;SDS011;27866;48.146;17.098;2022-10-16T13:18:22;25.10;;;16.65;;
42196;SDS011;27866;48.146;17.098;2022-10-16T13:32:07;24.48;;;18.98;;
42196;SDS011;27866;48.146;17.098;2022-10-16T13:36:24;21.15;;;17.95;;
42196;SDS011;27866;48.146;17.098;2022-10-16T13:40:47;21.65;;;17.77;;
42196;SDS011;27866;48.146;17.098;2022-10-16T13:45:19;22.65;;;18.02;;
42196;SDS011;27866;48.146;17.098;2022-10-16T13:49:32;24.20;;;17.35;;
42196;SDS011;27866;48.146;17.098;2022-10-16T13:53:44;23.33;;;18.20;;
42196;SDS011;27866;48.146;17.098;2022-10-16T13:58:12;21.63;;;17.55;;
42196;SDS011;27866;48.146;17.098;2022-10-16T14:02:29;21.17;;;16.58;;
42196;SDS011;27866;48.146;17.098;2022-10-16T14:06:49;23.33;;;16.15;;
42196;SDS011;27866;48.146;17.098;2022-10-16T14:11:02;27.38;;;16.88;;
42196;SDS011;27866;48.146;17.098;2022-10-16T14:15:16;24.88;;;17.17;;
42196;SDS011;27866;48.146;17.098;2022-10-16T14:19:29;21.00;;;14.80;;
42196;SDS011;27866;48.146;17.098;2022-10-16T14:23:41;19.58;;;15.27;;
42196;SDS011;27866;48.146;17.098;2022-10-16T14:32:25;21.13;;;16.75;;
42196;SDS011;27866;48.146;17.098;2022-10-16T14:36:36;22.63;;;16.70;;
42196;SDS011;27866;48.146;17.098;2022-10-16T14:40:51;25.95;;;17.30;;
42196;SDS011;27866;48.146;17.098;2022-10-16T14:45:07;23.40;;;16.92;;
42196;SDS011;27866;48.146;17.098;2022-10-16T14:49:20;20.30;;;16.50;;
42196;SDS011;27866;48.146;17.098;2022-10-16T14:53:33;25.80;;;17.40;;
42196;SDS011;27866;48.146;17.098;2022-10-16T14:57:44;27.75;;;18.33;;
42196;SDS011;27866;48.146;17.098;2022-10-16T15:01:56;27.25;;;18.63;;
42196;SDS011;27866;48.146;17.098;2022-10-16T15:06:11;22.73;;;18.13;;
42196;SDS011;27866;48.146;17.098;2022-10-16T15:10:24;23.75;;;17.35;;
42196;SDS011;27866;48.146;17.098;2022-10-16T15:14:37;23.95;;;17.60;;
42196;SDS011;27866;48.146;17.098;2022-10-16T15:18:49;23.25;;;16.55;;
42196;SDS011;27866;48.146;17.098;2022-10-16T15:23:00;27.77;;;19.70;;
42196;SDS011;27866;48.146;17.098;2022-10-16T15:27:25;29.63;;;18.77;;
42196;SDS011;27866;48.146;17.098;2022-10-16T15:31:36;27.25;;;19.33;;
42196;SDS011;27866;48.146;17.098;2022-10-16T15:35:48;27.65;;;18.90;;
42196;SDS011;27866;48.146;17.098;2022-10-16T15:44:13;35.70;;;19.48;;
42196;SDS011;27866;48.146;17.098;2022-10-16T15:48:24;24.30;;;16.42;;
42196;SDS011;27866;48.146;17.098;2022-10-16T15:52:35;27.80;;;19.65;;
42196;SDS011;27866;48.146;17.098;2022-10-16T15:56:46;27.52;;;17.52;;
42196;SDS011;27866;48.146;17.098;2022-10-16T16:00:58;26.35;;;18.60;;
42196;SDS011;27866;48.146;17.098;2022-10-16T16:05:14;21.45;;;14.40;;
42196;SDS011;27866;48.146;17.098;2022-10-16T16:09:25;25.60;;;15.80;;
42196;SDS011;27866;48.146;17.098;2022-10-16T16:13:38;25.67;;;17.17;;
42196;SDS011;27866;48.146;17.098;2022-10-16T16:17:50;30.80;;;17.90;;
42196;SDS011;27866;48.146;17.098;2022-10-16T16:22:01;31.42;;;18.20;;
42196;SDS011;27866;48.146;17.098;2022-10-16T16:26:14;35.13;;;19.88;;
42196;SDS011;27866;48.146;17.098;2022-10-16T16:30:36;26.10;;;15.80;;
42196;SDS011;27866;48.146;17.098;2022-10-16T16:34:47;34.38;;;18.20;;
42196;SDS011;27866;48.146;17.098;2022-10-16T16:38:58;26.13;;;16.35;;
42196;SDS011;27866;48.146;17.098;2022-10-16T16:43:10;27.75;;;17.35;;
42196;SDS011;27866;48.146;17.098;2022-10-16T16:47:21;37.58;;;18.65;;
42196;SDS011;27866;48.146;17.098;2022-10-16T16:51:32;25.38;;;15.82;;
42196;SDS011;27866;48.146;17.098;2022-10-16T16:55:43;21.40;;;16.33;;
42196;SDS011;27866;48.146;17.098;2022-10-16T16:59:55;24.52;;;14.98;;
42196;SDS011;27866;48.146;17.098;2022-10-16T17:04:06;28.92;;;15.73;;
42196;SDS011;27866;48.146;17.098;2022-10-16T17:08:18;39.85;;;17.15;;
42196;SDS011;27866;48.146;17.098;2022-10-16T17:12:29;25.83;;;16.67;;
42196;SDS011;27866;48.146;17.098;2022-10-16T17:16:41;31.45;;;16.95;;
42196;SDS011;27866;48.146;17.098;2022-10-16T17:20:54;25.45;;;16.15;;
42196;SDS011;27866;48.146;17.098;2022-10-16T17:25:08;25.35;;;15.88;;
42196;SDS011;27866;48.146;17.098;2022-10-16T17:29:19;28.33;;;16.05;;
42196;SDS011;27866;48.146;17.098;2022-10-16T17:33:30;29.38;;;16.75;;
42196;SDS011;27866;48.146;17.098;2022-10-16T17:37:41;27.27;;;16.40;;
42196;SDS011;27866;48.146;17.098;2022-10-16T17:41:53;29.58;;;16.90;;
42196;SDS011;27866;48.146;17.098;2022-10-16T17:46:05;23.42;;;15.88;;
42196;SDS011;27866;48.146;17.098;2022-10-16T17:50:17;22.98;;;16.33;;
42196;SDS011;27866;48.146;17.098;2022-10-16T17:54:29;25.83;;;18.42;;
42196;SDS011;27866;48.146;17.098;2022-10-16T17:58:40;51.85;;;18.63;;
42196;SDS011;27866;48.146;17.098;2022-10-16T18:02:51;30.42;;;17.25;;
42196;SDS011;27866;48.146;17.098;2022-10-16T18:07:02;33.78;;;18.80;;
42196;SDS011;27866;48.146;17.098;2022-10-16T18:11:13;30.58;;;17.92;;
42196;SDS011;27866;48.146;17.098;2022-10-16T18:15:24;27.77;;;17.02;;
42196;SDS011;27866;48.146;17.098;2022-10-16T18:19:36;26.58;;;17.52;;
42196;SDS011;27866;48.146;17.098;2022-10-16T18:23:47;27.17;;;17.00;;
42196;SDS011;27866;48.146;17.098;2022-10-16T18:27:59;32.90;;;18.02;;
42196;SDS011;27866;48.146;17.098;2022-10-16T18:32:10;26.25;;;17.63;;
42196;SDS011;27866;48.146;17.098;2022-10-16T18:36:22;27.33;;;18.17;;
42196;SDS011;27866;48.146;17.098;2022-10-16T18:40:38;28.70;;;18.73;;
42196;SDS011;27866;48.146;17.098;2022-10-16T18:44:49;30.17;;;17.60;;
42196;SDS011;27866;48.146;17.098;2022-10-16T18:49:01;38.33;;;18.48;;
42196;SDS011;27866;48.146;17.098;2022-10-16T18:53:14;38.92;;;18.92;;
42196;SDS011;27866;48.146;17.098;2022-10-16T18:57:26;32.17;;;18.10;;
42196;SDS011;27866;48.146;17.098;2022-10-16T19:01:39;28.77;;;18.13;;
42196;SDS011;27866;48.146;17.098;2022-10-16T19:05:51;25.48;;;16.92;;
42196;SDS011;27866;48.146;17.098;2022-10-16T19:10:03;27.05;;;17.30;;
42196;SDS011;27866;48.146;17.098;2022-10-16T19:14:15;31.40;;;18.23;;
42196;SDS011;27866;48.146;17.098;2022-10-16T19:18:27;26.55;;;17.20;;
42196;SDS011;27866;48.146;17.098;2022-10-16T19:22:40;25.90;;;17.65;;
42196;SDS011;27866;48.146;17.098;2022-10-16T19:27:03;30.98;;;17.67;;
42196;SDS011;27866;48.146;17.098;2022-10-16T19:31:16;32.20;;;18.92;;
42196;SDS011;27866;48.146;17.098;2022-10-16T19:35:30;43.75;;;19.95;;
42196;SDS011;27866;48.146;17.098;2022-10-16T19:39:42;28.92;;;19.48;;
42196;SDS011;27866;48.146;17.098;2022-10-16T19:43:53;32.35;;;19.55;;
42196;SDS011;27866;48.146;17.098;2022-10-16T19:48:05;29.38;;;19.58;;
42196;SDS011;27866;48.146;17.098;2022-10-16T19:52:16;32.40;;;19.88;;
42196;SDS011;27866;48.146;17.098;2022-10-16T19:56:28;32.75;;;19.65;;
42196;SDS011;27866;48.146;17.098;2022-10-16T20:00:41;32.70;;;19.60;;
42196;SDS011;27866;48.146;17.098;2022-10-16T20:04:52;29.77;;;19.67;;
42196;SDS011;27866;48.146;17.098;2022-10-16T20:09:03;31.77;;;19.83;;
42196;SDS011;27866;48.146;17.098;2022-10-16T20:13:15;38.67;;;20.02;;
42196;SDS011;27866;48.146;17.098;2022-10-16T20:17:26;29.80;;;19.00;;
42196;SDS011;27866;48.146;17.098;2022-10-16T20:21:38;28.05;;;18.15;;
42196;SDS011;27866;48.146;17.098;2022-10-16T20:25:49;35.40;;;18.80;;
42196;SDS011;27866;48.146;17.098;2022-10-16T20:30:01;30.70;;;18.15;;
42196;SDS011;27866;48.146;17.098;2022-10-16T20:34:13;29.52;;;17.52;;
42196;SDS011;27866;48.146;17.098;2022-10-16T20:38:24;27.33;;;17.38;;
42196;SDS011;27866;48.146;17.098;2022-10-16T20:42:35;33.00;;;17.98;;
42196;SDS011;27866;48.146;17.098;2022-10-16T20:46:46;28.48;;;17.33;;
42196;SDS011;27866;48.146;17.098;2022-10-16T20:50:57;29.50;;;16.48;;
42196;SDS011;27866;48.146;17.098;2022-10-16T20:55:09;25.02;;;17.05;;
42196;SDS011;27866;48.146;17.098;2022-10-16T20:59:20;32.13;;;17.55;;
42196;SDS011;27866;48.146;17.098;2022-10-16T21:03:31;30.38;;;16.95;;
42196;SDS011;27866;48.146;17.098;2022-10-16T21:07:42;22.65;;;16.17;;
42196;SDS011;27866;48.146;17.098;2022-10-16T21:11:54;26.77;;;15.82;;
42196;SDS011;27866;48.146;17.098;2022-10-16T21:16:05;23.05;;;15.07;;
42196;SDS011;27866;48.146;17.098;2022-10-16T21:20:17;30.55;;;16.63;;
42196;SDS011;27866;48.146;17.098;2022-10-16T21:24:28;28.25;;;15.43;;
42196;SDS011;27866;48.146;17.098;2022-10-16T21:28:39;23.95;;;15.27;;
42196;SDS011;27866;48.146;17.098;2022-10-16T21:32:50;24.15;;;15.57;;
42196;SDS011;27866;48.146;17.098;2022-10-16T21:37:02;24.55;;;14.88;;
42196;SDS011;27866;48.146;17.098;2022-10-16T21:41:14;26.67;;;15.20;;
42196;SDS011;27866;48.146;17.098;2022-10-16T21:45:37;29.42;;;15.48;;
42196;SDS011;27866;48.146;17.098;2022-10-16T21:49:48;29.52;;;15.25;;
42196;SDS011;27866;48.146;17.098;2022-10-16T21:53:59;31.05;;;15.15;;
42196;SDS011;27866;48.146;17.098;2022-10-16T21:58:11;29.42;;;15.90;;
42196;SDS011;27866;48.146;17.098;2022-10-16T22:02:22;21.50;;;13.80;;
42196;SDS011;27866;48.146;17.098;2022-10-16T22:06:34;22.75;;;14.05;;
42196;SDS011;27866;48.146;17.098;2022-10-16T22:10:45;29.65;;;15.05;;
42196;SDS011;27866;48.146;17.098;2022-10-16T22:14:56;24.42;;;14.15;;
42196;SDS011;27866;48.146;17.098;2022-10-16T22:19:07;22.20;;;14.20;;
42196;SDS011;27866;48.146;17.098;2022-10-16T22:23:19;24.52;;;13.88;;
42196;SDS011;27866;48.146;17.098;2022-10-16T22:27:31;24.27;;;14.05;;
42196;SDS011;27866;48.146;17.098;2022-10-16T22:31:42;23.83;;;12.82;;
42196;SDS011;27866;48.146;17.098;2022-10-16T22:35:53;21.60;;;13.48;;
42196;SDS011;27866;48.146;17.098;2022-10-16T22:40:05;18.98;;;13.02;;
42196;SDS011;27866;48.146;17.098;2022-10-16T22:44:17;21.83;;;13.82;;
42196;SDS011;27866;48.146;17.098;2022-10-16T22:48:28;24.50;;;12.95;;
42196;SDS011;27866;48.146;17.098;2022-10-16T22:52:39;20.52;;;13.35;;
42196;SDS011;27866;48.146;17.098;2022-10-16T22:56:50;21.90;;;13.20;;
42196;SDS011;27866;48.146;17.098;2022-10-16T23:01:02;24.58;;;13.65;;
42196;SDS011;27866;48.146;17.098;2022-10-16T23:05:25;26.27;;;13.80;;
42196;SDS011;27866;48.146;17.098;2022-10-16T23:09:36;19.30;;;12.90;;
42196;SDS011;27866;48.146;17.098;2022-10-16T23:13:47;25.42;;;13.27;;
42196;SDS011;27866;48.146;17.098;2022-10-16T23:17:59;24.08;;;13.75;;
42196;SDS011;27866;48.146;17.098;2022-10-16T23:22:10;20.50;;;12.98;;
42196;SDS011;27866;48.146;17.098;2022-10-16T23:26:22;23.42;;;14.20;;
42196;SDS011;27866;48.146;17.098;2022-10-16T23:34:48;20.73;;;11.88;;
42196;SDS011;27866;48.146;17.098;2022-10-16T23:38:59;22.25;;;12.88;;
42196;SDS011;27866;48.146;17.098;2022-10-16T23:43:10;18.88;;;12.65;;
42196;SDS011;27866;48.146;17.098;2022-10-16T23:47:21;19.73;;;12.70;;
42196;SDS011;27866;48.146;17.098;2022-10-16T23:51:32;20.40;;;12.68;;
42196;SDS011;27866;48.146;17.098;2022-10-16T23:55:43;22.90;;;12.85;;
42196;SDS011;27866;48.146;17.098;2022-10-16T23:59:54;18.25;;;12.07;;
